createdAt,value
2023-01-12T00:01:46.057Z,4.50
2023-01-12T00:04:13.601Z,4.52
2023-01-12T00:06:40.981Z,4.52
2023-01-12T00:09:08.306Z,4.71
2023-01-12T00:11:36.757Z,4.52
2023-01-12T00:14:04.408Z,4.50
2023-01-12T00:16:41.253Z,4.67
2023-01-12T00:19:16.017Z,4.63
2023-01-12T00:21:56.987Z,4.84
2023-01-12T00:24:34.756Z,4.88
2023-01-12T00:27:04.512Z,4.80
2023-01-12T00:29:31.512Z,4.77
2023-01-12T00:31:58.981Z,4.87
2023-01-12T00:34:27.897Z,4.87
2023-01-12T00:36:55.815Z,4.80
2023-01-12T00:39:22.698Z,4.79
2023-01-12T00:42:07.633Z,4.83
2023-01-12T00:44:52.605Z,4.85
2023-01-12T00:47:19.458Z,4.98
2023-01-12T00:49:46.629Z,4.88
2023-01-12T00:52:29.255Z,4.80
2023-01-12T00:54:56.856Z,4.91
2023-01-12T00:57:23.418Z,4.81
2023-01-12T00:59:50.631Z,4.97
2023-01-12T01:02:17.668Z,4.98
2023-01-12T01:04:44.419Z,4.94
2023-01-12T01:07:11.008Z,4.80
2023-01-12T01:09:37.592Z,4.84
2023-01-12T01:12:04.256Z,4.84
2023-01-12T01:14:30.846Z,4.91
2023-01-12T01:16:57.427Z,5.05
2023-01-12T01:19:24.233Z,4.98
2023-01-12T01:21:51.165Z,4.98
2023-01-12T01:24:17.931Z,5.02
2023-01-12T01:26:44.566Z,5.05
2023-01-12T01:29:11.175Z,5.10
2023-01-12T01:31:37.909Z,5.01
2023-01-12T01:34:04.585Z,4.97
2023-01-12T01:36:31.540Z,4.97
2023-01-12T01:38:58.313Z,4.91
2023-01-12T01:41:28.361Z,5.10
2023-01-12T01:43:58.801Z,4.98
2023-01-12T01:46:34.653Z,5.14
2023-01-12T01:49:23.837Z,5.18
2023-01-12T01:51:53.085Z,5.35
2023-01-12T01:54:19.891Z,5.25
2023-01-12T01:56:47.970Z,5.34
2023-01-12T01:59:19.490Z,5.35
2023-01-12T02:01:47.095Z,5.48
2023-01-12T02:04:14.290Z,5.63
2023-01-12T02:06:40.848Z,5.60
2023-01-12T02:09:28.025Z,5.72
2023-01-12T02:12:14.272Z,5.65
2023-01-12T02:15:05.456Z,5.73
2023-01-12T02:17:41.018Z,5.74
2023-01-12T02:20:13.365Z,5.69
2023-01-12T02:23:00.825Z,5.80
2023-01-12T02:25:54.914Z,5.80
2023-01-12T02:28:36.806Z,5.80
2023-01-12T02:31:19.181Z,5.82
2023-01-12T02:33:59.844Z,5.90
2023-01-12T02:36:55.695Z,5.86
2023-01-12T02:39:44.942Z,5.83
2023-01-12T02:42:44.049Z,5.82
2023-01-12T02:45:35.489Z,5.83
2023-01-12T02:48:12.079Z,5.86
2023-01-12T02:50:47.001Z,5.79
2023-01-12T02:53:49.927Z,5.80
2023-01-12T02:56:31.098Z,5.85
2023-01-12T02:59:02.409Z,5.87
2023-01-12T03:01:29.628Z,5.87
2023-01-12T03:04:01.085Z,5.87
2023-01-12T03:06:42.888Z,5.92
2023-01-12T03:09:09.953Z,5.93
2023-01-12T03:11:40.435Z,5.93
2023-01-12T03:14:09.385Z,5.92
2023-01-12T03:16:37.133Z,5.90
2023-01-12T03:19:18.393Z,5.86
2023-01-12T03:21:51.268Z,5.89
2023-01-12T03:24:30.667Z,5.85
2023-01-12T03:27:05.421Z,5.83
2023-01-12T03:29:37.944Z,5.89
2023-01-12T03:32:05.007Z,5.85
2023-01-12T03:34:33.456Z,5.80
2023-01-12T03:37:30.248Z,5.82
2023-01-12T03:40:22.362Z,5.80
2023-01-12T03:43:13.382Z,5.82
2023-01-12T03:45:43.173Z,5.86
2023-01-12T03:48:28.916Z,5.85
2023-01-12T03:51:02.400Z,5.89
2023-01-12T03:53:30.988Z,5.83
2023-01-12T03:56:03.409Z,5.87
2023-01-12T03:58:31.311Z,5.93
2023-01-12T04:00:57.931Z,5.94
2023-01-12T04:03:24.761Z,5.94
2023-01-12T04:05:51.417Z,5.94
2023-01-12T04:08:18.990Z,6.03
2023-01-12T04:10:45.840Z,6.02
2023-01-12T04:13:12.395Z,5.99
2023-01-12T04:15:42.404Z,5.99
2023-01-12T04:18:10.314Z,5.99
2023-01-12T04:20:37.831Z,6.04
2023-01-12T04:23:06.784Z,6.06
2023-01-12T04:25:34.389Z,6.14
2023-01-12T04:28:01.693Z,6.16
2023-01-12T04:30:29.666Z,6.14
2023-01-12T04:32:57.605Z,6.16
2023-01-12T04:35:24.777Z,6.10
2023-01-12T04:37:53.680Z,6.18
2023-01-12T04:40:20.474Z,6.20
2023-01-12T04:43:01.043Z,6.20
2023-01-12T04:45:32.211Z,6.18
2023-01-12T04:48:16.309Z,6.17
2023-01-12T04:50:44.484Z,6.17
2023-01-12T04:53:12.389Z,6.13
2023-01-12T04:55:41.765Z,6.25
2023-01-12T04:58:08.483Z,6.24
2023-01-12T05:00:36.212Z,6.21
2023-01-12T05:03:03.425Z,6.27
2023-01-12T05:05:32.662Z,6.31
2023-01-12T05:08:19.952Z,6.30
2023-01-12T05:10:58.593Z,6.35
2023-01-12T05:13:27.571Z,6.46
2023-01-12T05:15:54.237Z,6.44
2023-01-12T05:18:21.076Z,6.45
2023-01-12T05:20:47.910Z,6.46
2023-01-12T05:23:14.717Z,6.41
2023-01-12T05:25:41.300Z,6.46
2023-01-12T05:28:07.835Z,6.52
2023-01-12T05:30:34.650Z,6.49
2023-01-12T05:33:01.610Z,6.55
2023-01-12T05:35:28.201Z,6.55
2023-01-12T05:37:56.496Z,6.75
2023-01-12T05:40:23.153Z,6.75
2023-01-12T05:43:11.061Z,6.78
2023-01-12T05:45:37.609Z,6.79
2023-01-12T05:48:04.821Z,6.79
2023-01-12T05:50:31.377Z,6.88
2023-01-12T05:52:58.010Z,6.88
2023-01-12T05:55:24.543Z,6.91
2023-01-12T05:57:51.177Z,6.91
2023-01-12T06:00:18.649Z,6.86
2023-01-12T06:02:45.706Z,6.88
2023-01-12T06:05:12.933Z,6.76
2023-01-12T06:07:39.624Z,6.81
2023-01-12T06:10:07.139Z,6.89
2023-01-12T06:12:52.228Z,6.93
2023-01-12T06:15:18.819Z,6.93
2023-01-12T06:17:45.366Z,7.04
2023-01-12T06:20:17.080Z,7.04
2023-01-12T06:22:44.579Z,7.06
2023-01-12T06:25:11.582Z,7.04
2023-01-12T06:27:38.662Z,7.07
2023-01-12T06:30:08.500Z,7.12
2023-01-12T06:32:35.877Z,7.07
2023-01-12T06:35:14.044Z,7.13
2023-01-12T06:37:44.809Z,7.14
2023-01-12T06:40:12.118Z,7.09
2023-01-12T06:42:42.113Z,7.23
2023-01-12T06:45:09.782Z,7.20
2023-01-12T06:47:47.617Z,7.19
2023-01-12T06:50:14.372Z,7.20
2023-01-12T06:52:42.174Z,7.17
2023-01-12T06:55:08.988Z,7.20
2023-01-12T06:57:36.264Z,7.22
2023-01-12T07:00:04.465Z,7.24
2023-01-12T07:02:31.340Z,7.19
2023-01-12T07:04:58.018Z,7.22
2023-01-12T07:07:24.651Z,7.22
2023-01-12T07:09:51.665Z,7.27
2023-01-12T07:12:18.280Z,7.37
2023-01-12T07:14:44.964Z,7.35
2023-01-12T07:17:12.556Z,7.27
2023-01-12T07:19:41.471Z,7.28
2023-01-12T07:22:08.153Z,7.16
2023-01-12T07:24:34.733Z,7.14
2023-01-12T07:27:01.338Z,7.23
2023-01-12T07:29:27.879Z,7.23
2023-01-12T07:31:54.408Z,7.24
2023-01-12T07:34:21.165Z,7.27
2023-01-12T07:36:51.236Z,7.33
2023-01-12T07:39:18.324Z,7.27
2023-01-12T07:42:03.742Z,7.27
2023-01-12T07:44:30.459Z,7.22
2023-01-12T07:46:57.149Z,7.22
2023-01-12T07:49:23.747Z,7.26
2023-01-12T07:51:53.099Z,7.23
2023-01-12T07:54:19.854Z,7.26
2023-01-12T07:56:46.418Z,7.26
2023-01-12T07:59:13.308Z,7.33
2023-01-12T08:01:41.104Z,7.37
2023-01-12T08:04:07.701Z,7.35
2023-01-12T08:06:35.105Z,7.35
2023-01-12T08:09:01.687Z,7.43
2023-01-12T08:11:28.638Z,7.44
2023-01-12T08:13:57.176Z,7.54
2023-01-12T08:16:29.611Z,7.53
2023-01-12T08:19:01.922Z,7.58
2023-01-12T08:21:34.531Z,7.72
2023-01-12T08:24:05.419Z,7.77
2023-01-12T08:26:37.007Z,7.75
2023-01-12T08:29:12.832Z,7.82
2023-01-12T08:31:40.200Z,7.84
2023-01-12T08:34:08.602Z,7.88
2023-01-12T08:36:36.855Z,7.88
2023-01-12T08:39:04.359Z,7.91
2023-01-12T08:41:34.411Z,7.95
2023-01-12T08:44:02.511Z,7.94
2023-01-12T08:46:35.052Z,8.09
2023-01-12T08:49:03.350Z,8.01
2023-01-12T08:51:30.334Z,8.03
2023-01-12T08:53:56.891Z,7.95
2023-01-12T08:56:23.544Z,8.03
2023-01-12T08:58:50.148Z,8.05
2023-01-12T09:01:17.437Z,8.07
2023-01-12T09:03:44.390Z,8.15
2023-01-12T09:06:28.328Z,8.21
2023-01-12T09:08:57.231Z,8.19
2023-01-12T09:11:24.893Z,8.17
2023-01-12T09:13:51.518Z,8.23
2023-01-12T09:16:19.524Z,8.23
2023-01-12T09:18:46.855Z,8.25
2023-01-12T09:21:16.553Z,8.26
2023-01-12T09:23:43.784Z,8.36
2023-01-12T09:26:12.669Z,8.42
2023-01-12T09:28:39.973Z,8.39
2023-01-12T09:31:12.000Z,8.40
2023-01-12T09:33:40.712Z,8.40
2023-01-12T09:36:13.038Z,8.37
2023-01-12T09:38:41.265Z,8.39
2023-01-12T09:41:41.764Z,8.43
2023-01-12T09:44:50.937Z,8.52
2023-01-12T09:47:41.731Z,8.60
2023-01-12T09:50:12.498Z,8.65
2023-01-12T09:52:48.616Z,8.81
2023-01-12T09:55:21.454Z,8.88
2023-01-12T09:58:06.850Z,8.94
2023-01-12T10:00:33.628Z,8.92
2023-01-12T10:03:25.435Z,8.98
2023-01-12T10:05:55.144Z,9.01
2023-01-12T10:08:27.671Z,9.02
2023-01-12T10:11:19.177Z,9.10
2023-01-12T10:14:01.557Z,9.14
2023-01-12T10:16:53.476Z,9.25
2023-01-12T10:19:24.998Z,9.29
2023-01-12T10:21:53.460Z,9.35
2023-01-12T10:24:25.254Z,9.33
2023-01-12T10:27:00.398Z,9.39
2023-01-12T10:29:27.420Z,9.43
2023-01-12T10:31:54.192Z,9.49
2023-01-12T10:34:21.143Z,9.40
2023-01-12T10:36:57.807Z,9.42
2023-01-12T10:39:43.263Z,9.45
2023-01-12T10:42:35.863Z,9.33
2023-01-12T10:45:23.697Z,9.38
2023-01-12T10:47:53.652Z,9.26
2023-01-12T10:50:27.280Z,9.24
2023-01-12T10:52:57.914Z,9.11
2023-01-12T10:55:30.102Z,9.05
2023-01-12T10:57:56.782Z,8.87
2023-01-12T11:00:26.421Z,8.77
2023-01-12T11:02:53.681Z,8.75
2023-01-12T11:05:27.666Z,8.74
2023-01-12T11:07:54.476Z,8.75
2023-01-12T11:10:27.398Z,8.59
2023-01-12T11:12:58.846Z,8.54
2023-01-12T11:15:26.397Z,8.47
2023-01-12T11:18:03.255Z,8.42
2023-01-12T11:20:41.715Z,8.46
2023-01-12T11:23:30.070Z,8.33
2023-01-12T11:25:59.946Z,8.28
2023-01-12T11:28:35.437Z,8.26
2023-01-12T11:31:12.368Z,8.17
2023-01-12T11:33:42.732Z,8.15
2023-01-12T11:36:31.134Z,8.17
2023-01-12T11:39:05.183Z,8.21
2023-01-12T11:42:09.123Z,8.25
2023-01-12T11:45:12.984Z,8.40
2023-01-12T11:47:47.180Z,8.37
2023-01-12T11:50:18.651Z,8.39
2023-01-12T11:52:45.666Z,8.39
2023-01-12T11:55:14.985Z,8.40
2023-01-12T11:57:48.377Z,8.44
2023-01-12T12:00:42.037Z,8.49
2023-01-12T12:03:44.200Z,8.52
2023-01-12T12:06:25.724Z,8.59
2023-01-12T12:08:58.236Z,8.73
2023-01-12T12:11:54.827Z,8.70
2023-01-12T12:14:46.301Z,8.71
2023-01-12T12:17:30.729Z,8.77
2023-01-12T12:20:28.305Z,8.80
2023-01-12T12:23:14.022Z,8.83
2023-01-12T12:26:04.843Z,8.83
2023-01-12T12:28:56.007Z,8.92
2023-01-12T12:31:37.967Z,8.97
2023-01-12T12:34:07.686Z,9.01
2023-01-12T12:36:45.935Z,9.07
2023-01-12T12:39:35.794Z,9.11
2023-01-12T12:42:42.939Z,9.12
2023-01-12T12:45:29.598Z,9.16
2023-01-12T12:47:59.419Z,9.21
2023-01-12T12:50:41.603Z,9.19
2023-01-12T12:53:28.897Z,9.24
2023-01-12T12:58:49.122Z,9.35
2023-01-12T13:01:24.830Z,9.31
2023-01-12T13:04:01.614Z,9.32
2023-01-12T13:06:37.820Z,9.36
2023-01-12T13:09:27.352Z,9.43
2023-01-12T13:12:00.396Z,9.42
2023-01-12T13:14:30.067Z,9.42
2023-01-12T13:16:59.808Z,9.40
2023-01-12T13:19:42.390Z,9.45
2023-01-12T13:22:36.864Z,9.43
2023-01-12T13:25:24.195Z,9.43
2023-01-12T13:28:00.075Z,9.40
2023-01-12T13:30:26.689Z,9.42
2023-01-12T13:32:53.220Z,9.43
2023-01-12T13:35:47.108Z,9.39
2023-01-12T13:38:27.180Z,9.49
2023-01-12T13:41:51.660Z,9.49
2023-01-12T13:44:33.532Z,9.46
2023-01-12T13:47:09.714Z,9.49
2023-01-12T13:49:47.263Z,9.50
2023-01-12T13:52:27.695Z,9.50
2023-01-12T13:54:54.251Z,9.53
2023-01-12T13:57:26.344Z,9.56
2023-01-12T14:00:00.810Z,9.49
2023-01-12T14:02:32.331Z,9.52
2023-01-12T14:05:01.778Z,9.55
2023-01-12T14:07:52.950Z,9.55
2023-01-12T14:10:34.464Z,9.57
2023-01-12T14:13:36.786Z,9.55
2023-01-12T14:16:30.575Z,9.57
2023-01-12T14:18:57.102Z,9.56
2023-01-12T14:21:34.934Z,9.56
2023-01-12T14:24:17.829Z,9.55
2023-01-12T14:26:44.366Z,9.62
2023-01-12T14:29:12.692Z,9.62
2023-01-12T14:31:44.197Z,9.60
2023-01-12T14:34:28.605Z,9.59
2023-01-12T14:36:56.056Z,9.62
2023-01-12T14:39:26.514Z,9.64
2023-01-12T14:42:15.754Z,9.66
2023-01-12T14:45:14.940Z,9.62
2023-01-12T14:47:42.815Z,9.63
2023-01-12T14:50:12.116Z,9.66
2023-01-12T14:52:40.344Z,9.66
2023-01-12T14:55:26.316Z,9.70
2023-01-12T14:57:59.186Z,9.67
2023-01-12T15:00:29.556Z,9.67
2023-01-12T15:02:58.499Z,9.63
2023-01-12T15:05:30.731Z,9.69
2023-01-12T15:07:58.618Z,9.72
2023-01-12T15:10:32.762Z,9.64
2023-01-12T15:13:24.473Z,9.73
2023-01-12T15:16:11.199Z,9.66
2023-01-12T15:18:56.757Z,9.67
2023-01-12T15:21:43.566Z,9.66
2023-01-12T15:24:42.722Z,9.73
2023-01-12T15:27:11.490Z,9.69
2023-01-12T15:29:38.303Z,9.79
2023-01-12T15:32:09.497Z,9.76
2023-01-12T15:34:35.983Z,9.76
2023-01-12T15:37:02.586Z,9.79
2023-01-12T15:39:29.047Z,9.76
2023-01-12T15:42:13.971Z,9.86
2023-01-12T15:44:40.528Z,9.86
2023-01-12T15:47:10.086Z,9.84
2023-01-12T15:49:36.617Z,9.87
2023-01-12T15:52:03.262Z,9.89
2023-01-12T15:54:29.849Z,9.86
2023-01-12T15:56:57.460Z,9.83
2023-01-12T15:59:23.992Z,9.89
2023-01-12T16:01:51.169Z,9.93
2023-01-12T16:04:43.285Z,9.91
2023-01-12T16:07:10.579Z,9.93
2023-01-12T16:09:37.225Z,9.97
2023-01-12T16:12:04.160Z,10.00
2023-01-12T16:14:30.697Z,9.93
2023-01-12T16:16:57.230Z,9.98
2023-01-12T16:19:24.089Z,9.93
2023-01-12T16:21:50.751Z,9.86
2023-01-12T16:24:17.342Z,9.89
2023-01-12T16:26:45.998Z,9.83
2023-01-12T16:29:12.754Z,9.91
2023-01-12T16:31:39.657Z,9.90
2023-01-12T16:34:06.727Z,9.91
2023-01-12T16:36:33.680Z,9.91
2023-01-12T16:39:00.453Z,9.91
2023-01-12T16:41:27.570Z,9.94
2023-01-12T16:43:54.854Z,9.89
2023-01-12T16:46:21.407Z,9.90
2023-01-12T16:48:48.151Z,9.87
2023-01-12T16:51:17.303Z,9.86
2023-01-12T16:53:45.011Z,9.84
2023-01-12T16:56:14.154Z,9.82
2023-01-12T16:58:47.544Z,9.73
2023-01-12T17:01:21.157Z,9.77
2023-01-12T17:03:49.009Z,9.86
2023-01-12T17:06:18.366Z,9.89
2023-01-12T17:08:45.429Z,9.87
2023-01-12T17:11:15.055Z,9.83
2023-01-12T17:13:42.204Z,9.82
2023-01-12T17:16:10.637Z,9.83
2023-01-12T17:18:39.111Z,9.87
2023-01-12T17:21:12.932Z,9.84
2023-01-12T17:23:41.795Z,9.89
2023-01-12T17:26:15.406Z,9.89
2023-01-12T17:28:41.962Z,9.95
2023-01-12T17:31:10.777Z,10.01
2023-01-12T17:33:38.259Z,9.95
2023-01-12T17:36:06.958Z,9.89
2023-01-12T17:38:34.869Z,9.98
2023-01-12T17:41:07.907Z,9.97
2023-01-12T17:43:37.205Z,9.95
2023-01-12T17:46:04.362Z,10.04
2023-01-12T17:48:30.960Z,10.00
2023-01-12T17:50:57.867Z,10.00
2023-01-12T17:53:24.482Z,10.01
2023-01-12T17:55:53.055Z,10.07
2023-01-12T17:58:19.766Z,10.01
2023-01-12T18:00:46.377Z,10.03
2023-01-12T18:03:12.954Z,10.04
2023-01-12T18:05:40.869Z,10.04
2023-01-12T18:08:07.497Z,10.08
2023-01-12T18:10:34.120Z,10.13
2023-01-12T18:13:00.588Z,10.15
2023-01-12T18:15:29.482Z,10.10
2023-01-12T18:17:56.014Z,10.08
2023-01-12T18:20:22.546Z,10.05
2023-01-12T18:22:49.985Z,10.13
2023-01-12T18:25:16.828Z,10.11
2023-01-12T18:27:45.407Z,10.10
2023-01-12T18:30:12.363Z,10.15
2023-01-12T18:32:39.655Z,10.24
2023-01-12T18:35:06.425Z,10.27
2023-01-12T18:37:32.931Z,10.27
2023-01-12T18:39:59.471Z,10.20
2023-01-12T18:42:44.958Z,10.25
2023-01-12T18:45:11.742Z,10.21
2023-01-12T18:47:56.611Z,10.17
2023-01-12T18:50:41.551Z,10.13
2023-01-12T18:53:25.704Z,10.10
2023-01-12T18:55:57.319Z,10.15
2023-01-12T18:58:28.801Z,10.17
2023-01-12T19:01:01.127Z,10.13
2023-01-12T19:03:27.895Z,10.13
2023-01-12T19:05:54.477Z,10.14
2023-01-12T19:08:40.311Z,10.14
2023-01-12T19:11:12.062Z,10.11
2023-01-12T19:13:57.336Z,10.11
2023-01-12T19:16:42.689Z,10.13
2023-01-12T19:19:09.422Z,10.17
2023-01-12T19:21:55.387Z,10.15
2023-01-12T19:24:40.926Z,10.22
2023-01-12T19:27:30.543Z,10.15
2023-01-12T19:29:57.437Z,10.18
2023-01-12T19:32:24.252Z,10.14
2023-01-12T19:34:56.317Z,10.10
2023-01-12T19:37:23.504Z,10.11
2023-01-12T19:40:18.835Z,10.08
2023-01-12T19:43:04.080Z,10.21
2023-01-12T19:45:30.998Z,10.18
2023-01-12T19:47:57.658Z,10.17
2023-01-12T19:50:24.167Z,10.20
2023-01-12T19:52:50.764Z,10.21
2023-01-12T19:55:17.360Z,10.28
2023-01-12T19:57:44.083Z,10.24
2023-01-12T20:00:15.175Z,10.21
2023-01-12T20:02:44.422Z,10.11
2023-01-12T20:05:13.456Z,9.95
2023-01-12T20:07:40.455Z,9.90
2023-01-12T20:10:07.981Z,9.80
2023-01-12T20:12:34.595Z,9.80
2023-01-12T20:15:01.142Z,9.66
2023-01-12T20:17:28.522Z,9.60
2023-01-12T20:19:55.391Z,9.60
2023-01-12T20:22:21.904Z,9.59
2023-01-12T20:24:48.926Z,9.52
2023-01-12T20:27:15.587Z,9.40
2023-01-12T20:29:42.284Z,9.42
2023-01-12T20:32:08.900Z,9.33
2023-01-12T20:34:35.692Z,9.35
2023-01-12T20:37:02.355Z,9.29
2023-01-12T20:39:29.486Z,9.21
2023-01-12T20:41:56.154Z,9.12
2023-01-12T20:44:23.769Z,9.14
2023-01-12T20:46:50.689Z,9.12
2023-01-12T20:49:17.314Z,9.18
2023-01-12T20:51:43.877Z,9.08
2023-01-12T20:54:10.573Z,9.07
2023-01-12T20:56:37.134Z,9.05
2023-01-12T20:59:04.173Z,9.04
2023-01-12T21:01:31.519Z,9.04
2023-01-12T21:03:58.064Z,9.04
2023-01-12T21:06:24.638Z,9.01
2023-01-12T21:08:51.263Z,8.98
2023-01-12T21:11:19.365Z,8.98
2023-01-12T21:13:46.680Z,8.98
2023-01-12T21:16:16.307Z,8.98
2023-01-12T21:18:43.016Z,8.95
2023-01-12T21:21:10.336Z,8.94
2023-01-12T21:23:37.267Z,8.98
2023-01-12T21:26:07.525Z,8.97
2023-01-12T21:28:39.944Z,8.94
2023-01-12T21:31:10.863Z,8.95
2023-01-12T21:33:37.768Z,8.95
2023-01-12T21:36:04.751Z,8.92
2023-01-12T21:38:31.686Z,8.98
2023-01-12T21:41:03.386Z,8.95
2023-01-12T21:43:30.343Z,9.00
2023-01-12T21:46:04.387Z,9.02
2023-01-12T21:48:31.384Z,9.00
2023-01-12T21:51:04.676Z,9.01
2023-01-12T21:53:31.258Z,9.00
2023-01-12T21:56:00.734Z,8.98
2023-01-12T21:58:30.392Z,9.01
2023-01-12T22:00:57.933Z,8.97
2023-01-12T22:03:28.416Z,9.01
2023-01-12T22:05:55.553Z,9.04
2023-01-12T22:08:22.242Z,8.98
2023-01-12T22:10:48.835Z,8.98
2023-01-12T22:13:16.743Z,8.95
2023-01-12T22:15:44.887Z,8.94
2023-01-12T22:18:11.649Z,8.91
2023-01-12T22:20:38.683Z,8.97
2023-01-12T22:23:05.240Z,8.92
2023-01-12T22:25:31.866Z,8.91
2023-01-12T22:27:58.462Z,8.95
2023-01-12T22:30:25.171Z,8.95
2023-01-12T22:32:54.383Z,8.97
2023-01-12T22:35:21.210Z,8.92
2023-01-12T22:37:48.095Z,9.01
2023-01-12T22:40:15.852Z,9.01
2023-01-12T22:43:01.853Z,9.00
2023-01-12T22:45:28.576Z,8.95
2023-01-12T22:47:56.023Z,8.94
2023-01-12T22:50:23.850Z,8.94
2023-01-12T22:52:54.617Z,8.92
2023-01-12T22:55:22.629Z,8.94
2023-01-12T22:57:49.342Z,8.95
2023-01-12T23:00:17.970Z,8.98
2023-01-12T23:03:01.218Z,8.94
2023-01-12T23:05:31.817Z,8.92
2023-01-12T23:07:59.072Z,8.94
2023-01-12T23:10:25.779Z,9.00
2023-01-12T23:13:10.953Z,9.02
2023-01-12T23:15:38.910Z,8.95
2023-01-12T23:18:06.941Z,8.91
2023-01-12T23:20:36.048Z,8.95
2023-01-12T23:23:03.347Z,8.95
2023-01-12T23:25:32.632Z,8.94
2023-01-12T23:28:00.151Z,8.97
2023-01-12T23:30:30.781Z,8.97
2023-01-12T23:32:59.226Z,9.04
2023-01-12T23:35:27.233Z,9.01
2023-01-12T23:37:53.971Z,9.01
2023-01-12T23:40:20.588Z,9.07
2023-01-12T23:42:47.125Z,9.11
2023-01-12T23:45:13.804Z,9.04
2023-01-12T23:47:40.834Z,9.08
2023-01-12T23:50:09.027Z,9.05
2023-01-12T23:52:36.587Z,9.10
2023-01-12T23:55:04.729Z,9.11
2023-01-12T23:57:31.493Z,9.18
2023-01-12T23:59:58.099Z,9.15
